sensor_id;sensor_type;location;lat;lon;timestamp;temperature;humidity
81488;DHT22;70897;52.464;13.428;2023-08-06T00:01:49;17.00;98.00
81488;DHT22;70897;52.464;13.428;2023-08-06T00:04:34;17.00;97.90
81488;DHT22;70897;52.464;13.428;2023-08-06T00:07:19;17.00;97.90
81488;DHT22;70897;52.464;13.428;2023-08-06T00:10:04;17.00;97.90
81488;DHT22;70897;52.464;13.428;2023-08-06T00:12:49;17.00;97.90
81488;DHT22;70897;52.464;13.428;2023-08-06T00:15:34;17.00;97.90
81488;DHT22;70897;52.464;13.428;2023-08-06T00:18:19;17.00;97.80
81488;DHT22;70897;52.464;13.428;2023-08-06T00:21:04;17.00;97.90
81488;DHT22;70897;52.464;13.428;2023-08-06T00:23:49;17.00;97.80
81488;DHT22;70897;52.464;13.428;2023-08-06T00:26:34;17.00;97.80
81488;DHT22;70897;52.464;13.428;2023-08-06T00:29:19;17.00;98.10
81488;DHT22;70897;52.464;13.428;2023-08-06T00:32:04;16.90;98.10
81488;DHT22;70897;52.464;13.428;2023-08-06T00:34:49;16.90;98.20
81488;DHT22;70897;52.464;13.428;2023-08-06T00:37:34;16.90;98.30
81488;DHT22;70897;52.464;13.428;2023-08-06T00:40:20;16.90;98.30
81488;DHT22;70897;52.464;13.428;2023-08-06T00:43:06;16.90;98.50
81488;DHT22;70897;52.464;13.428;2023-08-06T00:45:51;16.90;98.50
81488;DHT22;70897;52.464;13.428;2023-08-06T00:48:36;16.80;98.70
81488;DHT22;70897;52.464;13.428;2023-08-06T00:51:22;16.80;98.90
81488;DHT22;70897;52.464;13.428;2023-08-06T00:54:09;16.70;98.90
81488;DHT22;70897;52.464;13.428;2023-08-06T00:56:54;16.70;99.20
81488;DHT22;70897;52.464;13.428;2023-08-06T00:59:39;16.60;99.40
81488;DHT22;70897;52.464;13.428;2023-08-06T01:02:24;16.60;99.70
81488;DHT22;70897;52.464;13.428;2023-08-06T01:05:09;16.50;99.90
81488;DHT22;70897;52.464;13.428;2023-08-06T01:14:21;16.40;99.90
81488;DHT22;70897;52.464;13.428;2023-08-06T01:17:08;16.40;99.90
81488;DHT22;70897;52.464;13.428;2023-08-06T01:19:54;16.40;99.90
81488;DHT22;70897;52.464;13.428;2023-08-06T01:22:39;16.40;99.90
81488;DHT22;70897;52.464;13.428;2023-08-06T01:25:33;16.40;99.90
81488;DHT22;70897;52.464;13.428;2023-08-06T01:28:23;16.40;99.90
81488;DHT22;70897;52.464;13.428;2023-08-06T01:31:18;16.30;99.90
81488;DHT22;70897;52.464;13.428;2023-08-06T01:34:07;16.30;99.90
81488;DHT22;70897;52.464;13.428;2023-08-06T01:36:54;16.30;99.90
81488;DHT22;70897;52.464;13.428;2023-08-06T01:39:42;16.30;99.90
81488;DHT22;70897;52.464;13.428;2023-08-06T01:42:27;16.20;99.90
81488;DHT22;70897;52.464;13.428;2023-08-06T01:45:13;16.30;99.90
81488;DHT22;70897;52.464;13.428;2023-08-06T01:47:58;16.20;99.90
81488;DHT22;70897;52.464;13.428;2023-08-06T01:50:43;16.20;99.90
81488;DHT22;70897;52.464;13.428;2023-08-06T01:53:28;16.20;99.90
81488;DHT22;70897;52.464;13.428;2023-08-06T01:56:13;16.10;99.90
81488;DHT22;70897;52.464;13.428;2023-08-06T01:58:58;16.10;99.90
81488;DHT22;70897;52.464;13.428;2023-08-06T02:01:43;16.10;99.90
81488;DHT22;70897;52.464;13.428;2023-08-06T02:04:29;16.00;99.90
81488;DHT22;70897;52.464;13.428;2023-08-06T02:07:14;15.90;99.90
81488;DHT22;70897;52.464;13.428;2023-08-06T02:09:59;15.90;99.90
81488;DHT22;70897;52.464;13.428;2023-08-06T02:12:44;16.00;99.90
81488;DHT22;70897;52.464;13.428;2023-08-06T02:15:29;15.90;99.90
81488;DHT22;70897;52.464;13.428;2023-08-06T02:18:14;15.90;99.90
81488;DHT22;70897;52.464;13.428;2023-08-06T02:20:59;15.80;99.90
81488;DHT22;70897;52.464;13.428;2023-08-06T02:23:44;15.80;99.90
81488;DHT22;70897;52.464;13.428;2023-08-06T02:26:29;15.80;99.90
81488;DHT22;70897;52.464;13.428;2023-08-06T02:29:14;15.70;99.90
81488;DHT22;70897;52.464;13.428;2023-08-06T02:32:02;15.70;99.90
81488;DHT22;70897;52.464;13.428;2023-08-06T02:34:47;15.60;99.90
81488;DHT22;70897;52.464;13.428;2023-08-06T02:37:36;15.70;99.90
81488;DHT22;70897;52.464;13.428;2023-08-06T02:40:21;15.60;99.90
81488;DHT22;70897;52.464;13.428;2023-08-06T02:43:06;15.60;99.90
81488;DHT22;70897;52.464;13.428;2023-08-06T02:45:51;15.60;99.90
81488;DHT22;70897;52.464;13.428;2023-08-06T02:48:36;15.60;99.90
81488;DHT22;70897;52.464;13.428;2023-08-06T02:51:21;15.60;99.90
81488;DHT22;70897;52.464;13.428;2023-08-06T02:54:06;15.50;99.90
81488;DHT22;70897;52.464;13.428;2023-08-06T02:56:53;15.50;99.90
81488;DHT22;70897;52.464;13.428;2023-08-06T02:59:48;15.50;99.90
81488;DHT22;70897;52.464;13.428;2023-08-06T03:02:39;15.50;99.90
81488;DHT22;70897;52.464;13.428;2023-08-06T03:05:53;15.50;99.90
81488;DHT22;70897;52.464;13.428;2023-08-06T03:08:45;15.50;99.90
81488;DHT22;70897;52.464;13.428;2023-08-06T03:11:30;15.40;99.90
81488;DHT22;70897;52.464;13.428;2023-08-06T03:14:21;15.40;99.90
81488;DHT22;70897;52.464;13.428;2023-08-06T03:17:06;15.40;99.90
81488;DHT22;70897;52.464;13.428;2023-08-06T03:19:52;15.40;99.90
81488;DHT22;70897;52.464;13.428;2023-08-06T03:22:37;15.40;99.90
81488;DHT22;70897;52.464;13.428;2023-08-06T03:25:22;15.40;99.90
81488;DHT22;70897;52.464;13.428;2023-08-06T03:28:08;15.40;99.90
81488;DHT22;70897;52.464;13.428;2023-08-06T03:31:04;15.40;99.90
81488;DHT22;70897;52.464;13.428;2023-08-06T03:34:01;15.40;99.90
81488;DHT22;70897;52.464;13.428;2023-08-06T03:36:48;15.30;99.90
81488;DHT22;70897;52.464;13.428;2023-08-06T03:39:33;15.30;99.90
81488;DHT22;70897;52.464;13.428;2023-08-06T03:42:18;15.30;99.90
81488;DHT22;70897;52.464;13.428;2023-08-06T03:45:04;15.30;99.90
81488;DHT22;70897;52.464;13.428;2023-08-06T03:47:49;15.30;99.90
81488;DHT22;70897;52.464;13.428;2023-08-06T03:50:35;15.40;99.90
81488;DHT22;70897;52.464;13.428;2023-08-06T03:53:20;15.30;99.90
81488;DHT22;70897;52.464;13.428;2023-08-06T03:56:06;15.40;99.90
81488;DHT22;70897;52.464;13.428;2023-08-06T03:58:51;15.40;99.90
81488;DHT22;70897;52.464;13.428;2023-08-06T04:01:36;15.30;99.90
81488;DHT22;70897;52.464;13.428;2023-08-06T04:04:21;15.30;99.90
81488;DHT22;70897;52.464;13.428;2023-08-06T04:07:06;15.40;99.90
81488;DHT22;70897;52.464;13.428;2023-08-06T04:09:59;15.40;99.90
81488;DHT22;70897;52.464;13.428;2023-08-06T04:12:44;15.50;99.90
81488;DHT22;70897;52.464;13.428;2023-08-06T04:15:29;15.40;99.90
81488;DHT22;70897;52.464;13.428;2023-08-06T04:18:15;15.40;99.90
81488;DHT22;70897;52.464;13.428;2023-08-06T04:21:01;15.50;99.90
81488;DHT22;70897;52.464;13.428;2023-08-06T04:23:46;15.40;99.90
81488;DHT22;70897;52.464;13.428;2023-08-06T04:26:32;15.50;99.90
81488;DHT22;70897;52.464;13.428;2023-08-06T04:29:18;15.50;99.90
81488;DHT22;70897;52.464;13.428;2023-08-06T04:32:06;15.50;99.90
81488;DHT22;70897;52.464;13.428;2023-08-06T04:34:52;15.50;99.90
81488;DHT22;70897;52.464;13.428;2023-08-06T04:37:37;15.50;99.90
81488;DHT22;70897;52.464;13.428;2023-08-06T04:40:22;15.60;99.90
81488;DHT22;70897;52.464;13.428;2023-08-06T04:43:07;15.60;99.90
81488;DHT22;70897;52.464;13.428;2023-08-06T04:45:54;15.60;99.90
81488;DHT22;70897;52.464;13.428;2023-08-06T04:48:39;15.60;99.90
81488;DHT22;70897;52.464;13.428;2023-08-06T04:51:24;15.60;99.90
81488;DHT22;70897;52.464;13.428;2023-08-06T04:54:09;15.60;99.90
81488;DHT22;70897;52.464;13.428;2023-08-06T04:56:54;15.60;99.90
81488;DHT22;70897;52.464;13.428;2023-08-06T04:59:39;15.70;99.90
81488;DHT22;70897;52.464;13.428;2023-08-06T05:02:27;15.70;99.90
81488;DHT22;70897;52.464;13.428;2023-08-06T05:05:12;15.70;99.90
81488;DHT22;70897;52.464;13.428;2023-08-06T05:07:57;15.70;99.90
81488;DHT22;70897;52.464;13.428;2023-08-06T05:10:44;15.80;99.90
81488;DHT22;70897;52.464;13.428;2023-08-06T05:13:29;15.80;99.90
81488;DHT22;70897;52.464;13.428;2023-08-06T05:16:14;15.80;99.90
81488;DHT22;70897;52.464;13.428;2023-08-06T05:18:59;15.80;99.90
81488;DHT22;70897;52.464;13.428;2023-08-06T05:21:44;15.70;99.90
81488;DHT22;70897;52.464;13.428;2023-08-06T05:24:29;15.80;99.90
81488;DHT22;70897;52.464;13.428;2023-08-06T05:27:14;15.80;99.90
81488;DHT22;70897;52.464;13.428;2023-08-06T05:29:59;15.80;99.90
81488;DHT22;70897;52.464;13.428;2023-08-06T05:32:44;15.90;99.90
81488;DHT22;70897;52.464;13.428;2023-08-06T05:35:29;15.90;99.90
81488;DHT22;70897;52.464;13.428;2023-08-06T05:38:14;16.00;99.90
81488;DHT22;70897;52.464;13.428;2023-08-06T05:40:59;15.90;99.90
81488;DHT22;70897;52.464;13.428;2023-08-06T05:43:45;15.90;99.90
81488;DHT22;70897;52.464;13.428;2023-08-06T05:46:30;16.10;99.90
81488;DHT22;70897;52.464;13.428;2023-08-06T05:49:15;16.10;99.90
81488;DHT22;70897;52.464;13.428;2023-08-06T05:52:00;16.10;99.90
81488;DHT22;70897;52.464;13.428;2023-08-06T05:54:45;16.20;99.90
81488;DHT22;70897;52.464;13.428;2023-08-06T05:57:30;16.20;99.90
81488;DHT22;70897;52.464;13.428;2023-08-06T06:00:15;16.20;99.90
81488;DHT22;70897;52.464;13.428;2023-08-06T06:03:00;16.20;99.90
81488;DHT22;70897;52.464;13.428;2023-08-06T06:05:45;16.30;99.90
81488;DHT22;70897;52.464;13.428;2023-08-06T06:08:30;16.30;99.90
81488;DHT22;70897;52.464;13.428;2023-08-06T06:11:15;16.30;99.90
81488;DHT22;70897;52.464;13.428;2023-08-06T06:14:00;16.20;99.90
81488;DHT22;70897;52.464;13.428;2023-08-06T06:16:46;16.30;99.90
81488;DHT22;70897;52.464;13.428;2023-08-06T06:19:30;16.30;99.90
81488;DHT22;70897;52.464;13.428;2023-08-06T06:22:15;16.40;99.90
81488;DHT22;70897;52.464;13.428;2023-08-06T06:25:00;16.40;99.90
81488;DHT22;70897;52.464;13.428;2023-08-06T06:27:45;16.50;99.90
81488;DHT22;70897;52.464;13.428;2023-08-06T06:30:30;16.50;99.90
81488;DHT22;70897;52.464;13.428;2023-08-06T06:33:15;16.60;99.90
81488;DHT22;70897;52.464;13.428;2023-08-06T06:36:01;16.60;99.90
81488;DHT22;70897;52.464;13.428;2023-08-06T06:38:48;16.70;99.90
81488;DHT22;70897;52.464;13.428;2023-08-06T06:41:33;16.60;99.90
81488;DHT22;70897;52.464;13.428;2023-08-06T06:44:27;16.70;99.90
81488;DHT22;70897;52.464;13.428;2023-08-06T06:47:12;16.70;99.90
81488;DHT22;70897;52.464;13.428;2023-08-06T06:49:57;16.80;99.90
81488;DHT22;70897;52.464;13.428;2023-08-06T06:52:42;16.80;99.90
81488;DHT22;70897;52.464;13.428;2023-08-06T06:55:27;16.90;99.90
81488;DHT22;70897;52.464;13.428;2023-08-06T06:58:12;17.00;99.90
81488;DHT22;70897;52.464;13.428;2023-08-06T07:00:57;17.00;99.90
81488;DHT22;70897;52.464;13.428;2023-08-06T07:03:42;17.00;99.90
81488;DHT22;70897;52.464;13.428;2023-08-06T07:06:27;17.00;99.90
81488;DHT22;70897;52.464;13.428;2023-08-06T07:09:13;17.00;99.90
81488;DHT22;70897;52.464;13.428;2023-08-06T07:11:57;17.00;99.90
81488;DHT22;70897;52.464;13.428;2023-08-06T07:14:43;17.00;99.90
81488;DHT22;70897;52.464;13.428;2023-08-06T07:17:28;17.10;99.90
81488;DHT22;70897;52.464;13.428;2023-08-06T07:20:13;17.20;99.90
81488;DHT22;70897;52.464;13.428;2023-08-06T07:22:58;17.40;99.90
81488;DHT22;70897;52.464;13.428;2023-08-06T07:25:43;17.50;99.90
81488;DHT22;70897;52.464;13.428;2023-08-06T07:28:28;17.50;99.90
81488;DHT22;70897;52.464;13.428;2023-08-06T07:31:13;17.50;99.90
81488;DHT22;70897;52.464;13.428;2023-08-06T07:33:58;17.40;99.90
81488;DHT22;70897;52.464;13.428;2023-08-06T07:36:46;17.40;99.90
81488;DHT22;70897;52.464;13.428;2023-08-06T07:39:32;17.40;99.90
81488;DHT22;70897;52.464;13.428;2023-08-06T07:42:17;17.40;99.90
81488;DHT22;70897;52.464;13.428;2023-08-06T07:45:05;17.40;99.90
81488;DHT22;70897;52.464;13.428;2023-08-06T07:47:50;17.40;99.90
81488;DHT22;70897;52.464;13.428;2023-08-06T07:50:36;17.50;99.90
81488;DHT22;70897;52.464;13.428;2023-08-06T07:53:21;17.50;99.90
81488;DHT22;70897;52.464;13.428;2023-08-06T07:56:07;17.40;99.90
81488;DHT22;70897;52.464;13.428;2023-08-06T07:58:52;17.40;99.90
81488;DHT22;70897;52.464;13.428;2023-08-06T08:01:37;17.30;99.90
81488;DHT22;70897;52.464;13.428;2023-08-06T08:04:23;17.30;99.90
81488;DHT22;70897;52.464;13.428;2023-08-06T08:07:09;17.30;99.90
81488;DHT22;70897;52.464;13.428;2023-08-06T08:09:55;17.30;99.90
81488;DHT22;70897;52.464;13.428;2023-08-06T08:12:40;17.20;99.90
81488;DHT22;70897;52.464;13.428;2023-08-06T08:15:25;17.30;99.90
81488;DHT22;70897;52.464;13.428;2023-08-06T08:18:12;17.30;99.90
81488;DHT22;70897;52.464;13.428;2023-08-06T08:20:57;17.30;99.90
81488;DHT22;70897;52.464;13.428;2023-08-06T08:23:42;17.40;99.90
81488;DHT22;70897;52.464;13.428;2023-08-06T08:26:28;17.50;99.90
81488;DHT22;70897;52.464;13.428;2023-08-06T08:29:13;17.70;99.90
81488;DHT22;70897;52.464;13.428;2023-08-06T08:31:58;17.70;99.90
81488;DHT22;70897;52.464;13.428;2023-08-06T08:34:43;17.80;99.90
81488;DHT22;70897;52.464;13.428;2023-08-06T08:37:29;17.80;99.90
81488;DHT22;70897;52.464;13.428;2023-08-06T08:40:15;17.80;99.70
81488;DHT22;70897;52.464;13.428;2023-08-06T08:43:00;17.90;99.90
81488;DHT22;70897;52.464;13.428;2023-08-06T08:45:46;18.10;99.90
81488;DHT22;70897;52.464;13.428;2023-08-06T08:48:34;18.20;99.90
81488;DHT22;70897;52.464;13.428;2023-08-06T08:51:19;18.50;99.90
81488;DHT22;70897;52.464;13.428;2023-08-06T08:54:04;18.60;99.00
81488;DHT22;70897;52.464;13.428;2023-08-06T08:56:53;18.70;98.30
81488;DHT22;70897;52.464;13.428;2023-08-06T08:59:39;18.70;98.30
81488;DHT22;70897;52.464;13.428;2023-08-06T09:02:26;18.60;99.30
81488;DHT22;70897;52.464;13.428;2023-08-06T09:05:13;18.50;99.10
81488;DHT22;70897;52.464;13.428;2023-08-06T09:08:05;18.70;99.20
81488;DHT22;70897;52.464;13.428;2023-08-06T09:10:50;18.90;98.90
81488;DHT22;70897;52.464;13.428;2023-08-06T09:13:37;19.00;98.50
81488;DHT22;70897;52.464;13.428;2023-08-06T09:16:24;19.10;97.10
81488;DHT22;70897;52.464;13.428;2023-08-06T09:19:10;19.00;97.60
81488;DHT22;70897;52.464;13.428;2023-08-06T09:21:56;19.00;98.50
81488;DHT22;70897;52.464;13.428;2023-08-06T09:24:42;19.00;98.40
81488;DHT22;70897;52.464;13.428;2023-08-06T09:27:27;19.20;97.80
81488;DHT22;70897;52.464;13.428;2023-08-06T09:30:32;19.20;97.40
81488;DHT22;70897;52.464;13.428;2023-08-06T09:33:18;19.30;97.30
81488;DHT22;70897;52.464;13.428;2023-08-06T09:36:13;19.40;97.50
81488;DHT22;70897;52.464;13.428;2023-08-06T09:38:58;19.30;97.30
81488;DHT22;70897;52.464;13.428;2023-08-06T09:41:44;19.40;98.00
81488;DHT22;70897;52.464;13.428;2023-08-06T09:44:31;19.30;97.20
81488;DHT22;70897;52.464;13.428;2023-08-06T09:47:16;19.20;97.70
81488;DHT22;70897;52.464;13.428;2023-08-06T09:50:03;19.30;98.00
81488;DHT22;70897;52.464;13.428;2023-08-06T09:52:48;19.30;97.90
81488;DHT22;70897;52.464;13.428;2023-08-06T09:55:34;19.30;98.30
81488;DHT22;70897;52.464;13.428;2023-08-06T09:58:21;19.10;97.80
81488;DHT22;70897;52.464;13.428;2023-08-06T10:01:07;18.80;98.20
81488;DHT22;70897;52.464;13.428;2023-08-06T10:03:53;18.70;99.00
81488;DHT22;70897;52.464;13.428;2023-08-06T10:06:38;18.50;99.10
81488;DHT22;70897;52.464;13.428;2023-08-06T10:09:24;18.40;99.80
81488;DHT22;70897;52.464;13.428;2023-08-06T10:12:09;18.30;99.90
81488;DHT22;70897;52.464;13.428;2023-08-06T10:14:56;18.30;99.90
81488;DHT22;70897;52.464;13.428;2023-08-06T10:17:43;18.30;99.90
81488;DHT22;70897;52.464;13.428;2023-08-06T10:20:34;18.20;99.90
81488;DHT22;70897;52.464;13.428;2023-08-06T10:23:19;18.00;99.90
81488;DHT22;70897;52.464;13.428;2023-08-06T10:26:05;18.00;99.90
81488;DHT22;70897;52.464;13.428;2023-08-06T10:28:50;17.90;99.90
81488;DHT22;70897;52.464;13.428;2023-08-06T10:32:14;17.80;99.90
81488;DHT22;70897;52.464;13.428;2023-08-06T10:34:59;17.70;99.90
81488;DHT22;70897;52.464;13.428;2023-08-06T10:37:45;17.60;99.90
81488;DHT22;70897;52.464;13.428;2023-08-06T10:40:31;17.60;99.90
81488;DHT22;70897;52.464;13.428;2023-08-06T10:46:23;17.60;99.90
81488;DHT22;70897;52.464;13.428;2023-08-06T10:49:11;17.50;99.90
81488;DHT22;70897;52.464;13.428;2023-08-06T10:51:57;17.70;99.90
81488;DHT22;70897;52.464;13.428;2023-08-06T10:54:42;17.90;99.90
81488;DHT22;70897;52.464;13.428;2023-08-06T10:57:27;18.00;99.90
81488;DHT22;70897;52.464;13.428;2023-08-06T11:00:13;18.20;99.90
81488;DHT22;70897;52.464;13.428;2023-08-06T11:02:58;18.20;99.90
81488;DHT22;70897;52.464;13.428;2023-08-06T11:05:50;18.30;99.90
81488;DHT22;70897;52.464;13.428;2023-08-06T11:08:37;18.40;99.90
81488;DHT22;70897;52.464;13.428;2023-08-06T11:11:23;18.40;99.90
81488;DHT22;70897;52.464;13.428;2023-08-06T11:14:15;18.40;99.90
81488;DHT22;70897;52.464;13.428;2023-08-06T11:17:00;18.30;99.60
81488;DHT22;70897;52.464;13.428;2023-08-06T11:19:45;18.40;99.90
81488;DHT22;70897;52.464;13.428;2023-08-06T11:22:30;18.50;99.90
81488;DHT22;70897;52.464;13.428;2023-08-06T11:25:15;18.60;99.90
81488;DHT22;70897;52.464;13.428;2023-08-06T11:28:01;18.70;99.90
81488;DHT22;70897;52.464;13.428;2023-08-06T11:30:46;18.70;99.90
81488;DHT22;70897;52.464;13.428;2023-08-06T11:33:31;18.70;99.90
81488;DHT22;70897;52.464;13.428;2023-08-06T11:36:16;18.80;99.90
81488;DHT22;70897;52.464;13.428;2023-08-06T11:39:03;19.00;99.80
81488;DHT22;70897;52.464;13.428;2023-08-06T11:41:51;19.10;99.20
81488;DHT22;70897;52.464;13.428;2023-08-06T11:44:36;19.10;98.30
81488;DHT22;70897;52.464;13.428;2023-08-06T11:47:21;19.00;98.80
81488;DHT22;70897;52.464;13.428;2023-08-06T11:50:06;18.80;99.20
81488;DHT22;70897;52.464;13.428;2023-08-06T11:52:57;18.80;99.30
81488;DHT22;70897;52.464;13.428;2023-08-06T11:55:43;19.00;99.00
81488;DHT22;70897;52.464;13.428;2023-08-06T11:58:29;19.20;98.50
81488;DHT22;70897;52.464;13.428;2023-08-06T12:01:14;19.30;98.20
81488;DHT22;70897;52.464;13.428;2023-08-06T12:03:59;19.20;97.80
81488;DHT22;70897;52.464;13.428;2023-08-06T12:06:44;19.10;98.30
81488;DHT22;70897;52.464;13.428;2023-08-06T12:09:29;19.10;98.50
81488;DHT22;70897;52.464;13.428;2023-08-06T12:12:14;19.10;98.90
81488;DHT22;70897;52.464;13.428;2023-08-06T12:15:01;19.00;98.80
81488;DHT22;70897;52.464;13.428;2023-08-06T12:17:49;18.70;99.00
81488;DHT22;70897;52.464;13.428;2023-08-06T12:20:34;18.70;99.80
81488;DHT22;70897;52.464;13.428;2023-08-06T12:23:19;18.70;99.90
81488;DHT22;70897;52.464;13.428;2023-08-06T12:26:04;18.70;99.50
81488;DHT22;70897;52.464;13.428;2023-08-06T12:28:49;18.70;99.90
81488;DHT22;70897;52.464;13.428;2023-08-06T12:31:34;18.70;99.80
81488;DHT22;70897;52.464;13.428;2023-08-06T12:34:19;18.60;99.50
81488;DHT22;70897;52.464;13.428;2023-08-06T12:37:05;18.50;99.60
81488;DHT22;70897;52.464;13.428;2023-08-06T12:39:50;18.40;99.90
81488;DHT22;70897;52.464;13.428;2023-08-06T12:42:35;18.20;99.90
81488;DHT22;70897;52.464;13.428;2023-08-06T12:45:20;18.20;99.90
81488;DHT22;70897;52.464;13.428;2023-08-06T12:48:06;18.20;99.90
81488;DHT22;70897;52.464;13.428;2023-08-06T12:50:51;18.20;99.90
81488;DHT22;70897;52.464;13.428;2023-08-06T12:53:36;18.10;99.90
81488;DHT22;70897;52.464;13.428;2023-08-06T12:56:21;18.00;99.90
81488;DHT22;70897;52.464;13.428;2023-08-06T12:59:06;18.00;99.90
81488;DHT22;70897;52.464;13.428;2023-08-06T13:01:51;18.10;99.90
81488;DHT22;70897;52.464;13.428;2023-08-06T13:04:36;18.10;99.90
81488;DHT22;70897;52.464;13.428;2023-08-06T13:07:21;18.00;99.90
81488;DHT22;70897;52.464;13.428;2023-08-06T13:10:07;18.00;99.90
81488;DHT22;70897;52.464;13.428;2023-08-06T13:12:52;18.00;99.90
81488;DHT22;70897;52.464;13.428;2023-08-06T13:15:37;18.10;99.90
81488;DHT22;70897;52.464;13.428;2023-08-06T13:18:22;18.00;99.90
81488;DHT22;70897;52.464;13.428;2023-08-06T13:21:07;18.00;99.90
81488;DHT22;70897;52.464;13.428;2023-08-06T13:23:52;18.00;99.90
81488;DHT22;70897;52.464;13.428;2023-08-06T13:26:38;18.00;99.90
81488;DHT22;70897;52.464;13.428;2023-08-06T13:29:23;17.90;99.90
81488;DHT22;70897;52.464;13.428;2023-08-06T13:32:08;17.90;99.90
81488;DHT22;70897;52.464;13.428;2023-08-06T13:34:53;17.90;99.90
81488;DHT22;70897;52.464;13.428;2023-08-06T13:37:38;17.80;99.90
81488;DHT22;70897;52.464;13.428;2023-08-06T13:40:24;17.70;99.90
81488;DHT22;70897;52.464;13.428;2023-08-06T13:43:09;17.60;99.90
81488;DHT22;70897;52.464;13.428;2023-08-06T13:45:54;17.50;99.90
81488;DHT22;70897;52.464;13.428;2023-08-06T13:48:39;17.40;99.90
81488;DHT22;70897;52.464;13.428;2023-08-06T13:51:24;17.40;99.90
81488;DHT22;70897;52.464;13.428;2023-08-06T13:54:09;17.40;99.90
81488;DHT22;70897;52.464;13.428;2023-08-06T13:56:54;17.50;99.90
81488;DHT22;70897;52.464;13.428;2023-08-06T13:59:40;17.50;99.90
81488;DHT22;70897;52.464;13.428;2023-08-06T14:02:25;17.60;99.90
81488;DHT22;70897;52.464;13.428;2023-08-06T14:05:10;17.70;99.90
81488;DHT22;70897;52.464;13.428;2023-08-06T14:07:55;17.70;99.90
81488;DHT22;70897;52.464;13.428;2023-08-06T14:10:40;17.80;99.90
81488;DHT22;70897;52.464;13.428;2023-08-06T14:13:25;17.70;99.90
81488;DHT22;70897;52.464;13.428;2023-08-06T14:16:10;17.80;99.90
81488;DHT22;70897;52.464;13.428;2023-08-06T14:18:55;17.80;99.90
81488;DHT22;70897;52.464;13.428;2023-08-06T14:21:40;17.70;99.90
81488;DHT22;70897;52.464;13.428;2023-08-06T14:24:25;17.80;99.90
81488;DHT22;70897;52.464;13.428;2023-08-06T14:27:10;17.80;99.90
81488;DHT22;70897;52.464;13.428;2023-08-06T14:29:55;17.70;99.90
81488;DHT22;70897;52.464;13.428;2023-08-06T14:32:41;17.60;99.90
81488;DHT22;70897;52.464;13.428;2023-08-06T14:35:26;17.60;99.90
81488;DHT22;70897;52.464;13.428;2023-08-06T14:38:11;17.50;99.90
81488;DHT22;70897;52.464;13.428;2023-08-06T14:40:56;17.40;99.90
81488;DHT22;70897;52.464;13.428;2023-08-06T14:43:42;17.40;99.90
81488;DHT22;70897;52.464;13.428;2023-08-06T14:46:27;17.40;99.90
81488;DHT22;70897;52.464;13.428;2023-08-06T14:49:12;17.40;99.90
81488;DHT22;70897;52.464;13.428;2023-08-06T14:51:57;17.50;99.90
81488;DHT22;70897;52.464;13.428;2023-08-06T14:54:44;17.50;99.90
81488;DHT22;70897;52.464;13.428;2023-08-06T14:57:30;17.50;99.90
81488;DHT22;70897;52.464;13.428;2023-08-06T15:00:16;17.50;99.90
81488;DHT22;70897;52.464;13.428;2023-08-06T15:03:01;17.60;99.90
81488;DHT22;70897;52.464;13.428;2023-08-06T15:05:49;17.60;99.90
81488;DHT22;70897;52.464;13.428;2023-08-06T15:08:34;17.70;99.90
81488;DHT22;70897;52.464;13.428;2023-08-06T15:11:19;17.60;99.90
81488;DHT22;70897;52.464;13.428;2023-08-06T15:14:04;17.70;99.90
81488;DHT22;70897;52.464;13.428;2023-08-06T15:16:51;17.80;99.90
81488;DHT22;70897;52.464;13.428;2023-08-06T15:19:37;17.80;99.90
81488;DHT22;70897;52.464;13.428;2023-08-06T15:22:22;17.90;99.90
81488;DHT22;70897;52.464;13.428;2023-08-06T15:25:07;18.00;99.90
81488;DHT22;70897;52.464;13.428;2023-08-06T15:27:53;18.10;99.90
81488;DHT22;70897;52.464;13.428;2023-08-06T15:30:38;18.20;99.90
81488;DHT22;70897;52.464;13.428;2023-08-06T15:33:24;18.10;99.90
81488;DHT22;70897;52.464;13.428;2023-08-06T15:36:09;18.10;99.90
81488;DHT22;70897;52.464;13.428;2023-08-06T15:38:54;18.00;99.90
81488;DHT22;70897;52.464;13.428;2023-08-06T15:41:39;18.00;99.90
81488;DHT22;70897;52.464;13.428;2023-08-06T15:44:24;17.90;99.90
81488;DHT22;70897;52.464;13.428;2023-08-06T15:47:09;17.70;99.90
81488;DHT22;70897;52.464;13.428;2023-08-06T15:49:54;17.60;99.90
81488;DHT22;70897;52.464;13.428;2023-08-06T15:52:39;17.50;99.90
81488;DHT22;70897;52.464;13.428;2023-08-06T15:55:24;17.40;99.90
81488;DHT22;70897;52.464;13.428;2023-08-06T15:58:09;17.50;99.90
81488;DHT22;70897;52.464;13.428;2023-08-06T16:00:54;17.50;99.90
81488;DHT22;70897;52.464;13.428;2023-08-06T16:03:40;17.40;99.90
81488;DHT22;70897;52.464;13.428;2023-08-06T16:06:28;17.40;99.90
81488;DHT22;70897;52.464;13.428;2023-08-06T16:09:13;17.30;99.90
81488;DHT22;70897;52.464;13.428;2023-08-06T16:11:58;17.30;99.90
81488;DHT22;70897;52.464;13.428;2023-08-06T16:14:42;17.20;99.90
81488;DHT22;70897;52.464;13.428;2023-08-06T16:17:28;17.20;99.90
81488;DHT22;70897;52.464;13.428;2023-08-06T16:20:13;17.20;99.90
81488;DHT22;70897;52.464;13.428;2023-08-06T16:22:59;17.20;99.90
81488;DHT22;70897;52.464;13.428;2023-08-06T16:25:44;17.20;99.90
81488;DHT22;70897;52.464;13.428;2023-08-06T16:28:32;17.10;99.90
81488;DHT22;70897;52.464;13.428;2023-08-06T16:31:18;17.10;99.90
81488;DHT22;70897;52.464;13.428;2023-08-06T16:34:04;17.00;99.90
81488;DHT22;70897;52.464;13.428;2023-08-06T16:36:49;17.00;99.90
81488;DHT22;70897;52.464;13.428;2023-08-06T16:39:34;16.90;99.90
81488;DHT22;70897;52.464;13.428;2023-08-06T16:42:19;16.90;99.90
81488;DHT22;70897;52.464;13.428;2023-08-06T16:45:05;16.90;99.90
81488;DHT22;70897;52.464;13.428;2023-08-06T16:47:50;16.80;99.90
81488;DHT22;70897;52.464;13.428;2023-08-06T16:50:37;16.80;99.90
81488;DHT22;70897;52.464;13.428;2023-08-06T16:53:22;16.80;99.90
81488;DHT22;70897;52.464;13.428;2023-08-06T16:56:07;16.80;99.90
81488;DHT22;70897;52.464;13.428;2023-08-06T16:58:52;16.80;99.90
81488;DHT22;70897;52.464;13.428;2023-08-06T17:01:38;16.80;99.90
81488;DHT22;70897;52.464;13.428;2023-08-06T17:04:24;16.80;99.90
81488;DHT22;70897;52.464;13.428;2023-08-06T17:07:09;16.70;99.90
81488;DHT22;70897;52.464;13.428;2023-08-06T17:09:54;16.70;99.90
81488;DHT22;70897;52.464;13.428;2023-08-06T17:12:39;16.70;99.90
81488;DHT22;70897;52.464;13.428;2023-08-06T17:15:24;16.70;99.90
81488;DHT22;70897;52.464;13.428;2023-08-06T17:18:09;16.70;99.90
81488;DHT22;70897;52.464;13.428;2023-08-06T17:20:56;16.70;99.90